Time;durP1;ratioP1;P1;durP2;ratioP2;P2;SDS_P1;SDS_P2;PMS_P1;PMS_P2;Temp;Humidity;BMP_temperature;BMP_pressure;BME280_temperature;BME280_humidity;BME280_pressure;Samples;Min_cycle;Max_cycle;Signal;HPM_P1;HPM_P2
2021/11/04 00:09:36;;;;;;;3.45;2.28;;;;;;;;;;21077360;28;20078;-65
2021/11/04 00:19:38;;;;;;;3.42;1.30;;;;;;;;;;21076730;28;20056;-63
2021/11/04 00:29:40;;;;;;;1.65;0.90;;;;;;;;;;21076634;28;20135;-63
2021/11/04 00:39:42;;;;;;;1.52;1.08;;;;;;;;;;21076694;28;20044;-65
2021/11/04 00:49:44;;;;;;;2.63;0.90;;;;;;;;;;21076695;28;20089;-68
2021/11/04 00:59:46;;;;;;;3.97;1.27;;;;;;;;;;21088931;28;20055;-69
2021/11/04 01:09:48;;;;;;;3.05;1.08;;;;;;;;;;21071740;28;20051;-71
2021/11/04 01:19:50;;;;;;;3.60;1.30;;;;;;;;;;21090382;28;20052;-70
2021/11/04 01:29:51;;;;;;;5.40;1.20;;;;;;;;;;21088788;28;20123;-70
2021/11/04 01:39:52;;;;;;;3.65;1.20;;;;;;;;;;21088451;28;20052;-69
2021/11/04 01:49:56;;;;;;;1.92;0.90;;;;;;;;;;21068998;28;20052;-70
2021/11/04 01:59:59;;;;;;;3.75;1.15;;;;;;;;;;21086542;28;20075;-63
2021/11/04 02:10:13;;;;;;;3.58;1.10;;;;;;;;;;21084010;28;20059;-63
2021/11/04 02:20:23;;;;;;;1.95;1.00;;;;;;;;;;21084522;28;20052;-63
2021/11/04 02:30:27;;;;;;;1.38;0.90;;;;;;;;;;21083200;28;20079;-68
2021/11/04 02:40:29;;;;;;;2.08;0.73;;;;;;;;;;21083761;28;20109;-70
2021/11/04 02:50:33;;;;;;;3.13;0.90;;;;;;;;;;21100695;28;20052;-69
2021/11/04 03:00:41;;;;;;;2.47;1.10;;;;;;;;;;21081368;28;20496;-68
2021/11/04 03:10:46;;;;;;;1.73;0.90;;;;;;;;;;21081331;28;20052;-68
2021/11/04 03:20:59;;;;;;;2.55;0.85;;;;;;;;;;21080198;28;20055;-69
2021/11/04 03:31:04;;;;;;;1.67;0.82;;;;;;;;;;21079198;28;20087;-67
2021/11/04 03:41:10;;;;;;;1.85;0.77;;;;;;;;;;21079918;28;20051;-66
2021/11/04 03:51:15;;;;;;;2.85;0.90;;;;;;;;;;21078644;28;20047;-70
2021/11/04 04:01:21;;;;;;;1.30;0.70;;;;;;;;;;21081523;28;20105;-68
2021/11/04 04:11:25;;;;;;;2.90;0.95;;;;;;;;;;21077884;28;20060;-69
2021/11/04 04:21:29;;;;;;;2.13;0.95;;;;;;;;;;21077140;28;20135;-62
2021/11/04 04:31:32;;;;;;;2.20;0.95;;;;;;;;;;21068469;28;20095;-69
2021/11/04 04:41:37;;;;;;;1.90;0.90;;;;;;;;;;21091829;28;20048;-69
2021/11/04 04:51:45;;;;;;;4.43;2.67;;;;;;;;;;21082982;28;20076;-63
2021/11/04 05:01:50;;;;;;;1.93;1.10;;;;;;;;;;21090153;28;20087;-71
2021/11/04 05:11:53;;;;;;;2.05;1.13;;;;;;;;;;21070810;28;20048;-69
2021/11/04 05:21:55;;;;;;;3.97;1.70;;;;;;;;;;21088485;28;20113;-70
2021/11/04 05:32:00;;;;;;;4.13;1.52;;;;;;;;;;21088616;28;20408;-69
2021/11/04 05:42:03;;;;;;;2.40;1.50;;;;;;;;;;21089688;28;20048;-68
2021/11/04 05:52:07;;;;;;;3.97;2.50;;;;;;;;;;21110773;28;20059;-69
2021/11/04 06:02:09;;;;;;;6.05;3.53;;;;;;;;;;21086137;28;20127;-70
2021/11/04 06:12:12;;;;;;;5.20;2.75;;;;;;;;;;21085466;28;20048;-68
2021/11/04 06:22:16;;;;;;;3.85;2.05;;;;;;;;;;21083965;28;20047;-69
2021/11/04 06:32:18;;;;;;;3.17;1.88;;;;;;;;;;21083294;28;20484;-69
2021/11/04 06:42:23;;;;;;;8.87;4.07;;;;;;;;;;21083517;28;20132;-69
2021/11/04 06:52:30;;;;;;;5.47;2.88;;;;;;;;;;21080785;28;20048;-68
2021/11/04 07:02:35;;;;;;;4.55;1.90;;;;;;;;;;21081099;28;20500;-67
2021/11/04 07:12:43;;;;;;;3.58;2.13;;;;;;;;;;21081601;28;20105;-70
2021/11/04 07:22:50;;;;;;;4.55;2.17;;;;;;;;;;21080037;28;20395;-70
2021/11/04 07:32:53;;;;;;;10.80;4.93;;;;;;;;;;21079303;28;20093;-70
2021/11/04 07:42:57;;;;;;;6.95;3.60;;;;;;;;;;21078767;28;20416;-69
2021/11/04 07:53:00;;;;;;;4.97;3.60;;;;;;;;;;21078187;28;20051;-70
2021/11/04 08:03:05;;;;;;;7.93;5.07;;;;;;;;;;21082056;28;20131;-69
2021/11/04 08:13:13;;;;;;;12.20;6.55;;;;;;;;;;21094854;28;20404;-70
2021/11/04 08:23:16;;;;;;;8.98;5.43;;;;;;;;;;21094675;28;20075;-68
2021/11/04 08:33:18;;;;;;;7.70;5.55;;;;;;;;;;21075390;28;20553;-71
2021/11/04 08:43:21;;;;;;;12.45;5.80;;;;;;;;;;21073331;28;20480;-70
2021/11/04 08:53:24;;;;;;;18.50;6.00;;;;;;;;;;21071497;28;20052;-69
2021/11/04 09:03:28;;;;;;;9.90;4.90;;;;;;;;;;21090329;28;20082;-68
2021/11/04 09:13:33;;;;;;;5.90;3.50;;;;;;;;;;21071798;28;20093;-68
2021/11/04 09:23:36;;;;;;;7.80;3.78;;;;;;;;;;21089712;28;20048;-67
2021/11/04 09:33:39;;;;;;;3.38;2.40;;;;;;;;;;21088391;28;20062;-64
2021/11/04 09:43:43;;;;;;;2.15;1.50;;;;;;;;;;21084708;28;20108;-66
2021/11/04 09:53:48;;;;;;;3.53;2.67;;;;;;;;;;21077677;28;20134;-61
2021/11/04 10:03:51;;;;;;;12.23;3.60;;;;;;;;;;21085232;28;20594;-68
2021/11/04 10:13:59;;;;;;;4.72;3.50;;;;;;;;;;21084850;28;20055;-69
2021/11/04 10:24:03;;;;;;;5.28;3.53;;;;;;;;;;21084264;28;20052;-72
2021/11/04 10:34:13;;;;;;;7.63;3.30;;;;;;;;;;21083160;28;20401;-72
2021/11/04 10:44:21;;;;;;;6.00;3.72;;;;;;;;;;21082904;28;20074;-72
2021/11/04 10:54:26;;;;;;;16.77;4.70;;;;;;;;;;21082419;28;20053;-54
2021/11/04 11:04:34;;;;;;;17.33;4.65;;;;;;;;;;21080319;28;20056;-60
2021/11/04 11:14:37;;;;;;;9.07;3.33;;;;;;;;;;21080403;28;20483;-58
2021/11/04 11:24:41;;;;;;;4.60;2.97;;;;;;;;;;21079714;28;20080;-59
2021/11/04 11:34:45;;;;;;;4.00;2.30;;;;;;;;;;21079721;28;20489;-59
2021/11/04 11:44:51;;;;;;;7.73;2.93;;;;;;;;;;21077120;28;20044;-58
2021/11/04 11:54:57;;;;;;;4.13;2.47;;;;;;;;;;21040323;28;20110;-62
2021/11/04 12:05:21;;;;;;;3.72;2.30;;;;;;;;;;21059737;28;20080;-59
2021/11/04 12:15:26;;;;;;;3.72;2.78;;;;;;;;;;21076785;28;20055;-60
2021/11/04 12:25:29;;;;;;;4.40;2.50;;;;;;;;;;21077389;28;20052;-56
2021/11/04 12:35:51;;;;;;;4.40;1.50;;;;;;;;;;21076853;28;20055;-59
2021/11/04 12:45:54;;;;;;;2.90;1.80;;;;;;;;;;21075786;28;20062;-59
2021/11/04 12:55:56;;;;;;;4.43;2.55;;;;;;;;;;21089625;28;20054;-58
2021/11/04 13:05:59;;;;;;;2.45;1.40;;;;;;;;;;21090836;28;20079;-59
2021/11/04 13:16:01;;;;;;;2.08;1.30;;;;;;;;;;21089954;28;20404;-59
2021/11/04 13:26:07;;;;;;;2.83;2.08;;;;;;;;;;21088401;28;20048;-58
2021/11/04 13:36:10;;;;;;;2.03;1.33;;;;;;;;;;21086994;28;20056;-59
2021/11/04 13:46:16;;;;;;;2.53;1.40;;;;;;;;;;21086680;28;20525;-59
2021/11/04 13:56:19;;;;;;;4.30;1.50;;;;;;;;;;21085824;28;20087;-59
2021/11/04 14:06:22;;;;;;;2.33;1.00;;;;;;;;;;21066024;28;20357;-60
2021/11/04 14:16:32;;;;;;;4.60;1.50;;;;;;;;;;21084891;28;20404;-59
2021/11/04 14:26:36;;;;;;;3.13;1.30;;;;;;;;;;21083599;28;20052;-60
2021/11/04 14:36:39;;;;;;;2.77;1.10;;;;;;;;;;21082947;28;20059;-59
2021/11/04 14:46:43;;;;;;;2.78;1.50;;;;;;;;;;21082591;28;20052;-59
2021/11/04 14:56:45;;;;;;;2.05;0.80;;;;;;;;;;21080576;28;20048;-60
2021/11/04 15:06:48;;;;;;;3.58;1.70;;;;;;;;;;21081286;28;20051;-59
2021/11/04 15:16:51;;;;;;;1.33;0.68;;;;;;;;;;21080424;28;20063;-60
2021/11/04 15:26:53;;;;;;;3.40;1.20;;;;;;;;;;21079697;28;20050;-59
2021/11/04 15:36:56;;;;;;;13.45;1.30;;;;;;;;;;21078640;28;20545;-59
2021/11/04 15:46:59;;;;;;;4.38;0.80;;;;;;;;;;21078437;28;20408;-59
2021/11/04 15:57:03;;;;;;;0.70;0.50;;;;;;;;;;21078525;28;20059;-59
2021/11/04 16:07:07;;;;;;;2.05;0.50;;;;;;;;;;21078286;28;20450;-59
2021/11/04 16:17:10;;;;;;;2.45;0.80;;;;;;;;;;21077215;28;20052;-60
2021/11/04 16:27:12;;;;;;;4.22;1.08;;;;;;;;;;21086453;28;20056;-59
2021/11/04 16:37:24;;;;;;;1.33;0.80;;;;;;;;;;21093452;28;20051;-60
2021/11/04 16:47:28;;;;;;;4.10;1.00;;;;;;;;;;21091507;28;20503;-60
2021/11/04 16:57:30;;;;;;;1.45;0.70;;;;;;;;;;21091040;28;20488;-58
2021/11/04 17:07:33;;;;;;;2.05;0.75;;;;;;;;;;21090657;28;20131;-60
2021/11/04 17:17:35;;;;;;;3.70;1.25;;;;;;;;;;21090484;28;20055;-60
2021/11/04 17:27:38;;;;;;;1.52;0.80;;;;;;;;;;21089076;28;20051;-61
2021/11/04 17:37:40;;;;;;;3.13;0.90;;;;;;;;;;21088306;28;20438;-58
2021/11/04 17:47:46;;;;;;;2.50;1.20;;;;;;;;;;21086885;28;20092;-60
2021/11/04 17:57:48;;;;;;;4.90;1.40;;;;;;;;;;21085651;28;20405;-61
2021/11/04 18:07:50;;;;;;;3.08;1.50;;;;;;;;;;21065226;28;20131;-60
2021/11/04 18:17:52;;;;;;;7.25;2.45;;;;;;;;;;21083761;28;20052;-60
2021/11/04 18:27:54;;;;;;;8.68;5.32;;;;;;;;;;21082141;28;20064;-58
2021/11/04 18:37:56;;;;;;;6.38;2.03;;;;;;;;;;21079932;28;20044;-59
2021/11/04 18:47:59;;;;;;;3.45;2.50;;;;;;;;;;21078743;28;20048;-60
2021/11/04 18:58:01;;;;;;;15.93;8.90;;;;;;;;;;21078849;28;20060;-59
2021/11/04 19:08:03;;;;;;;3.30;2.58;;;;;;;;;;21079127;28;20511;-60
2021/11/04 19:18:05;;;;;;;5.30;2.53;;;;;;;;;;21060412;28;20052;-59
2021/11/04 19:28:07;;;;;;;8.88;4.40;;;;;;;;;;21078377;28;20044;-59
2021/11/04 19:38:09;;;;;;;11.75;5.63;;;;;;;;;;21077405;28;20496;-60
2021/11/04 19:48:11;;;;;;;4.32;2.40;;;;;;;;;;21076361;28;20097;-59
2021/11/04 19:58:13;;;;;;;8.18;5.10;;;;;;;;;;21062306;28;20496;-59
2021/11/04 20:08:15;;;;;;;13.75;7.00;;;;;;;;;;21093113;28;20173;-59
2021/11/04 20:18:17;;;;;;;5.75;3.80;;;;;;;;;;21093351;28;20418;-58
2021/11/04 20:28:19;;;;;;;25.85;15.68;;;;;;;;;;21093109;28;20112;-59
2021/11/04 20:38:22;;;;;;;11.20;4.53;;;;;;;;;;21092608;28;20052;-60
2021/11/04 20:48:24;;;;;;;7.35;3.80;;;;;;;;;;21091568;28;20079;-59
2021/11/04 20:58:26;;;;;;;14.27;8.95;;;;;;;;;;21073377;28;20607;-59
2021/11/04 21:08:29;;;;;;;8.85;4.82;;;;;;;;;;21089713;28;20071;-59
2021/11/04 21:18:32;;;;;;;5.05;3.13;;;;;;;;;;21071424;28;20058;-59
2021/11/04 21:28:39;;;;;;;7.28;3.35;;;;;;;;;;21088690;28;20075;-60
2021/11/04 21:38:41;;;;;;;5.10;2.45;;;;;;;;;;21087847;28;20139;-64
2021/11/04 21:48:44;;;;;;;6.50;3.42;;;;;;;;;;21087059;28;20076;-60
2021/11/04 21:58:48;;;;;;;4.70;2.78;;;;;;;;;;21086977;28;20078;-59
2021/11/04 22:08:55;;;;;;;11.55;6.65;;;;;;;;;;21086990;28;20044;-59
2021/11/04 22:18:57;;;;;;;10.52;4.88;;;;;;;;;;21085367;28;20101;-59
2021/11/04 22:29:04;;;;;;;8.35;4.88;;;;;;;;;;21084942;28;20044;-60
2021/11/04 22:39:07;;;;;;;11.85;5.43;;;;;;;;;;21083685;28;20496;-60
2021/11/04 22:49:09;;;;;;;9.25;4.30;;;;;;;;;;21065331;28;20408;-60
2021/11/04 22:59:12;;;;;;;11.27;4.38;;;;;;;;;;21082379;28;20062;-60
2021/11/04 23:09:14;;;;;;;6.72;4.07;;;;;;;;;;21081987;28;20404;-60
2021/11/04 23:19:16;;;;;;;9.15;4.55;;;;;;;;;;21081101;28;20055;-60
2021/11/04 23:29:18;;;;;;;32.13;18.08;;;;;;;;;;21080231;28;20048;-60
2021/11/04 23:39:20;;;;;;;7.55;4.32;;;;;;;;;;21078566;28;20054;-60
2021/11/04 23:49:23;;;;;;;6.90;4.07;;;;;;;;;;21078529;28;20044;-61
2021/11/04 23:59:25;;;;;;;8.25;4.20;;;;;;;;;;21078699;28;20060;-59
